METAR Reports From Nearby Airports

 

KLUD - Decatur, Texas, USA
Distance from Wildwood: ESE 5mi, 8km
Updated: Aug 23, 2017 12:15pm
Partly Cloudy
Partly Cloudy
 Wind from calm
Wind: Calm
Temperature: 81°F , 27°C
Heat Index: 85°F , 29°C
Dew Point: 70°F , 21°C
Humidity: 70%
Clouds: Partly Cloudy
Visibility: 10 miles , 16 km
Cloud details: Partly Cloudy 2700 ft
2017/08/23 17:15 KLUD 231715Z AUTO 00000KT 10SM SCT027 27/21 RMK AO2 T02730210
KXBP - Bridgeport, Texas, USA
Distance from Wildwood: WSW 11mi, 18km
Updated: Aug 23, 2017 12:15pm
Mostly Cloudy
Mostly Cloudy
 Wind from calm
Wind: Calm
Temperature: 81°F , 27°C
Heat Index: 85°F , 29°C
Dew Point: 70°F , 21°C
Humidity: 70%
Barometer: 30.08 inHg , 1018.6 hPa
Clouds: Mostly Cloudy
Visibility: 10 miles , 16 km
Cloud details: Partly Cloudy 1900 ft
Mostly Cloudy 2400 ft
2017/08/23 17:15 KXBP 231715Z AUTO 00000KT 10SM SCT019 BKN024 27/21 A3008 RMK AO2 T02730209
 
K0F2 - Bowie, Texas, USA
Distance from Wildwood: NNW 24mi, 39km
Updated: Aug 23, 2017 12:15pm
Mostly Cloudy
Mostly Cloudy
 Wind from SSE
Wind: SSE 6 mph , 9 km/h
Temperature: 79°F , 26°C
Dew Point: 72°F , 22°C
Humidity: 79%
Barometer: 30.07 inHg , 1018.3 hPa
Clouds: Mostly Cloudy
Visibility: 10 miles , 16 km
Cloud details: Partly Cloudy 1600 ft
Partly Cloudy 3000 ft
Mostly Cloudy 11000 ft
2017/08/23 17:15 K0F2 231715Z AUTO 15005KT 10SM SCT016 SCT030 BKN110 26/22 A3007 RMK AO2 T02590218 TSNO
KDTO - Denton, Texas, USA
Distance from Wildwood: E 27mi, 44km
Updated: Aug 23, 2017 11:53am
Mostly Cloudy
Mostly Cloudy
 
Temperature: 81°F , 27°C
Heat Index: 85°F , 29°C
Dew Point: 72°F , 22°C
Humidity: 74%
Barometer: 30.05 inHg , 1017.6 hPa
Clouds: Mostly Cloudy
Visibility: 10 miles , 16 km
Cloud details: Mostly Cloudy 8500 ft
2017/08/23 16:53 KDTO 231653Z 10SM BKN085 27/22 A3005 RMK AO2 SLP165 T02720217
 
KAFW - Ft Worth/Allianc, Texas, USA
Distance from Wildwood: SE 29mi, 46km
Updated: Aug 23, 2017 11:53am
Mostly Cloudy
Mostly Cloudy
 Wind from NE
Wind: NE 5 mph , 7 km/h
Temperature: 84°F , 29°C
Heat Index: 89°F , 32°C
Dew Point: 72°F , 22°C
Humidity: 66%
Barometer: 30.04 inHg , 1017.3 hPa
Clouds: Mostly Cloudy
Visibility: 10 miles , 16 km
Cloud details: Few Clouds 2500 ft
Few Clouds 10000 ft
Mostly Cloudy 15000 ft
2017/08/23 16:53 KAFW 231653Z 05004KT 10SM FEW025 FEW100 BKN150 29/22 A3004 RMK AO2 SLP156 T02890222
KFTW - Fort Worth, Texas, USA
Distance from Wildwood: SSE 34mi, 55km
Updated: Aug 23, 2017 11:53am
Clear
Clear
 Wind from ESE
Wind: ESE 5 mph , 7 km/h
Temperature: 82°F , 28°C
Heat Index: 87°F , 31°C
Dew Point: 73°F , 23°C
Humidity: 74%
Barometer: 30.04 inHg , 1017.3 hPa
Clouds: Clear
Visibility: 10 miles , 16 km
2017/08/23 16:53 KFTW 231653Z 11004KT 10SM CLR 28/23 A3004 RMK AO2 SLP162 T02780228
 
KNFW - Fort Worth Nas, Texas, USA
Distance from Wildwood: SSE 36mi, 58km
Updated: Aug 23, 2017 10:52am
NOT Current
Overcast
Overcast
 Wind from calm
Wind: Calm
Temperature: 79°F , 26°C
Dew Point: 72°F , 22°C
Humidity: 79%
Barometer: 30.06 inHg , 1017.9 hPa
Clouds: Overcast
Visibility: 10 miles , 16 km
Cloud details: Partly Cloudy 1400 ft
Mostly Cloudy 8000 ft
Overcast 12000 ft
2017/08/23 15:52 KNFW 231552Z 00000KT 10SM SCT014 BKN080 OVC120 26/22 A3006 RMK AO2 SLP161 T02610222 $
KGLE - Gainesville, Texas, USA
Distance from Wildwood: NE 38mi, 61km
Updated: Aug 23, 2017 12:15pm
Overcast
Overcast
 Wind from calm
Wind: Calm
Temperature: 81°F , 27°C
Heat Index: 85°F , 29°C
Dew Point: 70°F , 21°C
Humidity: 70%
Barometer: 30.07 inHg , 1018.3 hPa
Clouds: Overcast
Visibility: 10 miles , 16 km
Cloud details: Partly Cloudy 6500 ft
Overcast 11000 ft
2017/08/23 17:15 KGLE 231715Z AUTO 00000KT 10SM SCT065 OVC110 27/21 A3007 RMK AO2 T02670208
 
KMWL - Mineral Wells, Texas, USA
Distance from Wildwood: SW 41mi, 65km
Updated: Aug 23, 2017 12:18pm
Partly Cloudy
Partly Cloudy
 Wind from WNW
Wind: WNW 7 mph , 11 km/h
Temperature: 81°F , 27°C
Heat Index: 85°F , 29°C
Dew Point: 72°F , 22°C
Humidity: 74%
Barometer: 30.04 inHg , 1017.3 hPa
Clouds: Partly Cloudy
Visibility: 10 miles , 16 km
Cloud details: Partly Cloudy 2200 ft
2017/08/23 17:18 KMWL 231718Z AUTO 30006KT 10SM SCT022 27/22 A3004 RMK AO2 T02720217
KDFW - Dallas/Ft Worth, Texas, USA
Distance from Wildwood: ESE 45mi, 73km
Updated: Aug 23, 2017 11:53am
Mostly Cloudy
Mostly Cloudy
 Wind from calm
Wind: Calm
Temperature: 84°F , 29°C
Heat Index: 88°F , 31°C
Dew Point: 70°F , 21°C
Humidity: 62%
Barometer: 30.02 inHg , 1016.6 hPa
Clouds: Mostly Cloudy
Visibility: 10 miles , 16 km
Cloud details: Few Clouds 3000 ft
Partly Cloudy 11000 ft
Mostly Cloudy 15000 ft
Mostly Cloudy 25000 ft
2017/08/23 16:53 KDFW 231653Z 00000KT 10SM FEW030 SCT110 BKN150 BKN250 29/21 A3002 RMK AO2 SLP156 T02940211